sensor_id;sensor_type;location;lat;lon;timestamp;temperature;humidity
19878;DHT22;10101;52.204;9.910;2022-11-20T00:00:16;-4.60;99.90
19878;DHT22;10101;52.204;9.910;2022-11-20T00:02:42;-4.60;99.90
19878;DHT22;10101;52.204;9.910;2022-11-20T00:05:09;-4.70;99.90
19878;DHT22;10101;52.204;9.910;2022-11-20T00:07:36;-4.80;99.90
19878;DHT22;10101;52.204;9.910;2022-11-20T00:10:03;-4.80;99.90
19878;DHT22;10101;52.204;9.910;2022-11-20T00:12:31;-4.80;99.90
19878;DHT22;10101;52.204;9.910;2022-11-20T00:14:58;-4.90;99.90
19878;DHT22;10101;52.204;9.910;2022-11-20T00:17:24;-5.00;99.90
19878;DHT22;10101;52.204;9.910;2022-11-20T00:19:51;-4.90;99.90
19878;DHT22;10101;52.204;9.910;2022-11-20T00:22:18;-4.90;99.90
19878;DHT22;10101;52.204;9.910;2022-11-20T00:24:44;-4.70;99.90
19878;DHT22;10101;52.204;9.910;2022-11-20T00:27:11;-4.80;99.90
19878;DHT22;10101;52.204;9.910;2022-11-20T00:29:40;-4.90;99.90
19878;DHT22;10101;52.204;9.910;2022-11-20T00:32:06;-4.90;99.90
19878;DHT22;10101;52.204;9.910;2022-11-20T00:34:33;-4.90;99.90
19878;DHT22;10101;52.204;9.910;2022-11-20T00:37:00;-4.90;99.90
19878;DHT22;10101;52.204;9.910;2022-11-20T00:39:26;-4.80;99.90
19878;DHT22;10101;52.204;9.910;2022-11-20T00:41:53;-4.80;99.90
19878;DHT22;10101;52.204;9.910;2022-11-20T00:44:20;-4.90;99.90
19878;DHT22;10101;52.204;9.910;2022-11-20T00:46:48;-5.00;99.90
19878;DHT22;10101;52.204;9.910;2022-11-20T00:49:14;-5.10;99.90
19878;DHT22;10101;52.204;9.910;2022-11-20T00:51:41;-5.10;99.90
19878;DHT22;10101;52.204;9.910;2022-11-20T00:54:08;-5.00;99.90
19878;DHT22;10101;52.204;9.910;2022-11-20T00:56:35;-5.00;99.90
19878;DHT22;10101;52.204;9.910;2022-11-20T00:59:01;-4.90;99.90
19878;DHT22;10101;52.204;9.910;2022-11-20T01:01:29;-5.00;99.90
19878;DHT22;10101;52.204;9.910;2022-11-20T01:03:59;-5.00;99.90
19878;DHT22;10101;52.204;9.910;2022-11-20T01:06:27;-5.00;99.90
19878;DHT22;10101;52.204;9.910;2022-11-20T01:08:56;-5.10;99.90
19878;DHT22;10101;52.204;9.910;2022-11-20T01:11:24;-5.10;99.90
19878;DHT22;10101;52.204;9.910;2022-11-20T01:13:52;-5.00;99.90
19878;DHT22;10101;52.204;9.910;2022-11-20T01:16:21;-5.10;99.90
19878;DHT22;10101;52.204;9.910;2022-11-20T01:18:50;-5.10;99.90
19878;DHT22;10101;52.204;9.910;2022-11-20T01:21:20;-5.10;99.90
19878;DHT22;10101;52.204;9.910;2022-11-20T01:23:48;-5.00;99.90
19878;DHT22;10101;52.204;9.910;2022-11-20T01:26:17;-5.00;99.90
19878;DHT22;10101;52.204;9.910;2022-11-20T01:28:44;-5.00;99.90
19878;DHT22;10101;52.204;9.910;2022-11-20T01:31:12;-5.00;99.90
19878;DHT22;10101;52.204;9.910;2022-11-20T01:33:40;-5.20;99.90
19878;DHT22;10101;52.204;9.910;2022-11-20T01:36:08;-5.20;99.90
19878;DHT22;10101;52.204;9.910;2022-11-20T01:38:37;-5.10;99.90
19878;DHT22;10101;52.204;9.910;2022-11-20T01:41:05;-5.10;99.90
19878;DHT22;10101;52.204;9.910;2022-11-20T01:43:32;-5.20;99.90
19878;DHT22;10101;52.204;9.910;2022-11-20T01:46:13;-5.30;99.90
19878;DHT22;10101;52.204;9.910;2022-11-20T01:48:44;-5.30;99.90
19878;DHT22;10101;52.204;9.910;2022-11-20T01:51:17;-5.20;99.90
19878;DHT22;10101;52.204;9.910;2022-11-20T01:53:47;-5.10;99.90
19878;DHT22;10101;52.204;9.910;2022-11-20T01:56:15;-5.10;99.90
19878;DHT22;10101;52.204;9.910;2022-11-20T01:58:45;-5.10;99.90
19878;DHT22;10101;52.204;9.910;2022-11-20T02:01:14;-5.30;99.90
19878;DHT22;10101;52.204;9.910;2022-11-20T02:03:42;-5.20;99.90
19878;DHT22;10101;52.204;9.910;2022-11-20T02:06:13;-5.50;99.90
19878;DHT22;10101;52.204;9.910;2022-11-20T02:08:41;-5.40;99.90
19878;DHT22;10101;52.204;9.910;2022-11-20T02:11:09;-5.40;99.90
19878;DHT22;10101;52.204;9.910;2022-11-20T02:13:38;-5.30;99.90
19878;DHT22;10101;52.204;9.910;2022-11-20T02:16:16;-5.20;99.90
19878;DHT22;10101;52.204;9.910;2022-11-20T02:18:46;-5.10;99.90
19878;DHT22;10101;52.204;9.910;2022-11-20T02:21:24;-5.20;99.90
19878;DHT22;10101;52.204;9.910;2022-11-20T02:24:04;-5.30;99.90
19878;DHT22;10101;52.204;9.910;2022-11-20T02:26:36;-5.40;99.90
19878;DHT22;10101;52.204;9.910;2022-11-20T02:29:04;-5.20;99.90
19878;DHT22;10101;52.204;9.910;2022-11-20T02:31:36;-5.20;99.90
19878;DHT22;10101;52.204;9.910;2022-11-20T02:34:04;-5.20;99.90
19878;DHT22;10101;52.204;9.910;2022-11-20T02:36:32;-5.00;99.90
19878;DHT22;10101;52.204;9.910;2022-11-20T02:38:59;-4.90;99.90
19878;DHT22;10101;52.204;9.910;2022-11-20T02:41:32;-5.00;99.90
19878;DHT22;10101;52.204;9.910;2022-11-20T02:44:00;-5.00;99.90
19878;DHT22;10101;52.204;9.910;2022-11-20T02:46:26;-5.00;99.90
19878;DHT22;10101;52.204;9.910;2022-11-20T02:48:53;-5.00;99.90
19878;DHT22;10101;52.204;9.910;2022-11-20T02:51:20;-5.10;99.90
19878;DHT22;10101;52.204;9.910;2022-11-20T02:53:46;-5.10;99.90
19878;DHT22;10101;52.204;9.910;2022-11-20T02:56:13;-5.00;99.90
19878;DHT22;10101;52.204;9.910;2022-11-20T02:58:41;-5.20;99.90
19878;DHT22;10101;52.204;9.910;2022-11-20T03:01:08;-5.20;99.90
19878;DHT22;10101;52.204;9.910;2022-11-20T03:03:35;-5.20;99.90
19878;DHT22;10101;52.204;9.910;2022-11-20T03:06:02;-5.30;99.90
19878;DHT22;10101;52.204;9.910;2022-11-20T03:08:29;-5.30;99.90
19878;DHT22;10101;52.204;9.910;2022-11-20T03:10:56;-5.40;99.90
19878;DHT22;10101;52.204;9.910;2022-11-20T03:13:24;-5.50;99.90
19878;DHT22;10101;52.204;9.910;2022-11-20T03:15:52;-5.60;99.90
19878;DHT22;10101;52.204;9.910;2022-11-20T03:18:19;-5.60;99.90
19878;DHT22;10101;52.204;9.910;2022-11-20T03:20:46;-5.50;99.90
19878;DHT22;10101;52.204;9.910;2022-11-20T03:23:13;-5.50;99.90
19878;DHT22;10101;52.204;9.910;2022-11-20T03:25:39;-5.50;99.90
19878;DHT22;10101;52.204;9.910;2022-11-20T03:28:07;-5.50;99.90
19878;DHT22;10101;52.204;9.910;2022-11-20T03:30:34;-5.50;99.90
19878;DHT22;10101;52.204;9.910;2022-11-20T03:33:02;-5.40;99.90
19878;DHT22;10101;52.204;9.910;2022-11-20T03:35:29;-5.40;99.90
19878;DHT22;10101;52.204;9.910;2022-11-20T03:37:57;-5.50;99.90
19878;DHT22;10101;52.204;9.910;2022-11-20T03:40:24;-5.40;99.90
19878;DHT22;10101;52.204;9.910;2022-11-20T03:42:50;-5.30;99.90
19878;DHT22;10101;52.204;9.910;2022-11-20T03:45:18;-5.20;99.90
19878;DHT22;10101;52.204;9.910;2022-11-20T03:47:45;-5.20;99.90
19878;DHT22;10101;52.204;9.910;2022-11-20T03:50:13;-5.20;99.90
19878;DHT22;10101;52.204;9.910;2022-11-20T03:52:40;-5.40;99.90
19878;DHT22;10101;52.204;9.910;2022-11-20T03:55:08;-5.40;99.90
19878;DHT22;10101;52.204;9.910;2022-11-20T03:57:34;-5.30;99.90
19878;DHT22;10101;52.204;9.910;2022-11-20T04:00:01;-5.30;99.90
19878;DHT22;10101;52.204;9.910;2022-11-20T04:02:28;-5.30;99.90
19878;DHT22;10101;52.204;9.910;2022-11-20T04:04:55;-5.30;99.90
19878;DHT22;10101;52.204;9.910;2022-11-20T04:07:23;-5.20;99.90
19878;DHT22;10101;52.204;9.910;2022-11-20T04:09:49;-5.20;99.90
19878;DHT22;10101;52.204;9.910;2022-11-20T04:12:16;-5.10;99.90
19878;DHT22;10101;52.204;9.910;2022-11-20T04:14:43;-5.20;99.90
19878;DHT22;10101;52.204;9.910;2022-11-20T04:17:09;-5.20;99.90
19878;DHT22;10101;52.204;9.910;2022-11-20T04:19:36;-5.10;99.90
19878;DHT22;10101;52.204;9.910;2022-11-20T04:22:03;-5.10;99.90
19878;DHT22;10101;52.204;9.910;2022-11-20T04:24:31;-5.10;99.90
19878;DHT22;10101;52.204;9.910;2022-11-20T04:26:58;-5.00;99.90
19878;DHT22;10101;52.204;9.910;2022-11-20T04:29:24;-5.00;99.90
19878;DHT22;10101;52.204;9.910;2022-11-20T04:31:51;-5.00;99.90
19878;DHT22;10101;52.204;9.910;2022-11-20T04:34:18;-5.00;99.90
19878;DHT22;10101;52.204;9.910;2022-11-20T04:36:44;-5.00;99.90
19878;DHT22;10101;52.204;9.910;2022-11-20T04:39:12;-5.00;99.90
19878;DHT22;10101;52.204;9.910;2022-11-20T04:41:41;-4.90;99.90
19878;DHT22;10101;52.204;9.910;2022-11-20T04:44:08;-4.80;99.90
19878;DHT22;10101;52.204;9.910;2022-11-20T04:46:37;-4.90;99.90
19878;DHT22;10101;52.204;9.910;2022-11-20T04:49:04;-4.90;99.90
19878;DHT22;10101;52.204;9.910;2022-11-20T04:51:32;-4.90;99.90
19878;DHT22;10101;52.204;9.910;2022-11-20T04:53:59;-4.80;99.90
19878;DHT22;10101;52.204;9.910;2022-11-20T04:56:25;-4.80;99.90
19878;DHT22;10101;52.204;9.910;2022-11-20T04:58:54;-4.80;99.90
19878;DHT22;10101;52.204;9.910;2022-11-20T05:01:22;-4.90;99.90
19878;DHT22;10101;52.204;9.910;2022-11-20T05:03:49;-4.80;99.90
19878;DHT22;10101;52.204;9.910;2022-11-20T05:06:17;-4.70;99.90
19878;DHT22;10101;52.204;9.910;2022-11-20T05:08:44;-4.70;99.90
19878;DHT22;10101;52.204;9.910;2022-11-20T05:11:13;-4.70;99.90
19878;DHT22;10101;52.204;9.910;2022-11-20T05:13:41;-4.70;99.90
19878;DHT22;10101;52.204;9.910;2022-11-20T05:16:11;-4.60;99.90
19878;DHT22;10101;52.204;9.910;2022-11-20T05:18:38;-4.60;99.90
19878;DHT22;10101;52.204;9.910;2022-11-20T05:21:06;-4.50;99.90
19878;DHT22;10101;52.204;9.910;2022-11-20T05:23:34;-4.40;99.90
19878;DHT22;10101;52.204;9.910;2022-11-20T05:26:01;-4.30;99.90
19878;DHT22;10101;52.204;9.910;2022-11-20T05:28:30;-4.30;99.90
19878;DHT22;10101;52.204;9.910;2022-11-20T05:31:04;-4.40;99.90
19878;DHT22;10101;52.204;9.910;2022-11-20T05:33:32;-4.50;99.90
19878;DHT22;10101;52.204;9.910;2022-11-20T05:35:59;-4.40;99.90
19878;DHT22;10101;52.204;9.910;2022-11-20T05:38:26;-4.30;99.90
19878;DHT22;10101;52.204;9.910;2022-11-20T05:40:52;-4.30;99.90
19878;DHT22;10101;52.204;9.910;2022-11-20T05:43:19;-4.40;99.90
19878;DHT22;10101;52.204;9.910;2022-11-20T05:45:52;-4.30;99.90
19878;DHT22;10101;52.204;9.910;2022-11-20T05:48:18;-4.30;99.90
19878;DHT22;10101;52.204;9.910;2022-11-20T05:50:47;-4.40;99.90
19878;DHT22;10101;52.204;9.910;2022-11-20T05:53:14;-4.20;99.90
19878;DHT22;10101;52.204;9.910;2022-11-20T05:55:41;-4.20;99.90
19878;DHT22;10101;52.204;9.910;2022-11-20T05:58:07;-4.10;99.90
19878;DHT22;10101;52.204;9.910;2022-11-20T06:00:34;-4.30;99.90
19878;DHT22;10101;52.204;9.910;2022-11-20T06:03:01;-4.30;99.90
19878;DHT22;10101;52.204;9.910;2022-11-20T06:05:28;-4.20;99.90
19878;DHT22;10101;52.204;9.910;2022-11-20T06:07:56;-4.30;99.90
19878;DHT22;10101;52.204;9.910;2022-11-20T06:10:22;-4.30;99.90
19878;DHT22;10101;52.204;9.910;2022-11-20T06:12:49;-4.20;99.90
19878;DHT22;10101;52.204;9.910;2022-11-20T06:15:16;-4.30;99.90
19878;DHT22;10101;52.204;9.910;2022-11-20T06:17:43;-4.20;99.90
19878;DHT22;10101;52.204;9.910;2022-11-20T06:20:10;-4.10;99.90
19878;DHT22;10101;52.204;9.910;2022-11-20T06:22:37;-4.10;99.90
19878;DHT22;10101;52.204;9.910;2022-11-20T06:25:05;-4.10;99.90
19878;DHT22;10101;52.204;9.910;2022-11-20T06:27:32;-4.00;99.90
19878;DHT22;10101;52.204;9.910;2022-11-20T06:29:59;-4.10;99.90
19878;DHT22;10101;52.204;9.910;2022-11-20T06:32:26;-4.10;99.90
19878;DHT22;10101;52.204;9.910;2022-11-20T06:34:53;-4.00;99.90
19878;DHT22;10101;52.204;9.910;2022-11-20T06:37:20;-3.90;99.90
19878;DHT22;10101;52.204;9.910;2022-11-20T06:39:46;-3.90;99.90
19878;DHT22;10101;52.204;9.910;2022-11-20T06:42:15;-3.90;99.90
19878;DHT22;10101;52.204;9.910;2022-11-20T06:44:41;-3.90;99.90
19878;DHT22;10101;52.204;9.910;2022-11-20T06:47:08;-3.80;99.90
19878;DHT22;10101;52.204;9.910;2022-11-20T06:49:35;-3.90;99.90
19878;DHT22;10101;52.204;9.910;2022-11-20T06:52:04;-3.80;99.90
19878;DHT22;10101;52.204;9.910;2022-11-20T06:54:30;-3.80;99.90
19878;DHT22;10101;52.204;9.910;2022-11-20T06:56:57;-3.70;99.90
19878;DHT22;10101;52.204;9.910;2022-11-20T06:59:25;-3.60;99.90
19878;DHT22;10101;52.204;9.910;2022-11-20T07:01:52;-3.60;99.90
19878;DHT22;10101;52.204;9.910;2022-11-20T07:04:19;-3.60;99.90
19878;DHT22;10101;52.204;9.910;2022-11-20T07:06:46;-3.70;99.90
19878;DHT22;10101;52.204;9.910;2022-11-20T07:09:12;-3.50;99.90
19878;DHT22;10101;52.204;9.910;2022-11-20T07:11:39;-3.50;99.90
19878;DHT22;10101;52.204;9.910;2022-11-20T07:14:06;-3.40;99.90
19878;DHT22;10101;52.204;9.910;2022-11-20T07:16:34;-3.30;99.90
19878;DHT22;10101;52.204;9.910;2022-11-20T07:19:00;-3.30;99.90
19878;DHT22;10101;52.204;9.910;2022-11-20T07:21:27;-3.30;99.90
19878;DHT22;10101;52.204;9.910;2022-11-20T07:23:54;-3.40;99.90
19878;DHT22;10101;52.204;9.910;2022-11-20T07:26:20;-3.40;99.90
19878;DHT22;10101;52.204;9.910;2022-11-20T07:28:47;-3.30;99.90
19878;DHT22;10101;52.204;9.910;2022-11-20T07:31:14;-3.10;99.90
19878;DHT22;10101;52.204;9.910;2022-11-20T07:33:42;-3.00;99.90
19878;DHT22;10101;52.204;9.910;2022-11-20T07:36:09;-2.90;99.90
19878;DHT22;10101;52.204;9.910;2022-11-20T07:38:37;-2.90;99.90
19878;DHT22;10101;52.204;9.910;2022-11-20T07:41:04;-2.80;99.90
19878;DHT22;10101;52.204;9.910;2022-11-20T07:43:31;-2.80;99.90
19878;DHT22;10101;52.204;9.910;2022-11-20T07:45:58;-2.80;99.90
19878;DHT22;10101;52.204;9.910;2022-11-20T07:48:25;-2.80;99.90
19878;DHT22;10101;52.204;9.910;2022-11-20T07:50:54;-2.80;99.90
19878;DHT22;10101;52.204;9.910;2022-11-20T07:53:21;-2.70;99.90
19878;DHT22;10101;52.204;9.910;2022-11-20T07:55:48;-2.70;99.90
19878;DHT22;10101;52.204;9.910;2022-11-20T07:58:17;-2.60;99.90
19878;DHT22;10101;52.204;9.910;2022-11-20T08:00:44;-2.60;99.90
19878;DHT22;10101;52.204;9.910;2022-11-20T08:03:11;-2.70;99.90
19878;DHT22;10101;52.204;9.910;2022-11-20T08:05:38;-2.50;99.90
19878;DHT22;10101;52.204;9.910;2022-11-20T08:08:06;-2.50;99.90
19878;DHT22;10101;52.204;9.910;2022-11-20T08:10:33;-2.50;99.90
19878;DHT22;10101;52.204;9.910;2022-11-20T08:13:00;-2.40;99.90
19878;DHT22;10101;52.204;9.910;2022-11-20T08:15:48;-2.40;99.90
19878;DHT22;10101;52.204;9.910;2022-11-20T08:18:16;-2.40;99.90
19878;DHT22;10101;52.204;9.910;2022-11-20T08:20:43;-2.40;99.90
19878;DHT22;10101;52.204;9.910;2022-11-20T08:23:12;-2.40;99.90
19878;DHT22;10101;52.204;9.910;2022-11-20T08:25:38;-2.40;99.90
19878;DHT22;10101;52.204;9.910;2022-11-20T08:28:07;-2.40;99.90
19878;DHT22;10101;52.204;9.910;2022-11-20T08:30:34;-2.40;99.90
19878;DHT22;10101;52.204;9.910;2022-11-20T08:33:03;-2.30;99.90
19878;DHT22;10101;52.204;9.910;2022-11-20T08:35:33;-2.20;99.90
19878;DHT22;10101;52.204;9.910;2022-11-20T08:38:01;-2.20;99.90
19878;DHT22;10101;52.204;9.910;2022-11-20T08:40:29;-2.20;99.90
19878;DHT22;10101;52.204;9.910;2022-11-20T08:42:55;-2.30;99.90
19878;DHT22;10101;52.204;9.910;2022-11-20T08:45:22;-2.30;99.90
19878;DHT22;10101;52.204;9.910;2022-11-20T08:47:49;-2.20;99.90
19878;DHT22;10101;52.204;9.910;2022-11-20T08:50:16;-2.20;99.90
19878;DHT22;10101;52.204;9.910;2022-11-20T08:52:43;-2.20;99.90
19878;DHT22;10101;52.204;9.910;2022-11-20T08:55:10;-2.20;99.90
19878;DHT22;10101;52.204;9.910;2022-11-20T08:57:38;-2.00;99.90
19878;DHT22;10101;52.204;9.910;2022-11-20T09:00:07;-2.00;99.90
19878;DHT22;10101;52.204;9.910;2022-11-20T09:02:35;-1.90;99.90
19878;DHT22;10101;52.204;9.910;2022-11-20T09:05:02;-1.70;99.90
19878;DHT22;10101;52.204;9.910;2022-11-20T09:07:29;-1.60;99.90
19878;DHT22;10101;52.204;9.910;2022-11-20T09:09:56;-1.60;99.90
19878;DHT22;10101;52.204;9.910;2022-11-20T09:12:23;-1.60;99.90
19878;DHT22;10101;52.204;9.910;2022-11-20T09:14:51;-1.60;99.90
19878;DHT22;10101;52.204;9.910;2022-11-20T09:17:18;-1.50;99.90
19878;DHT22;10101;52.204;9.910;2022-11-20T09:19:45;-1.30;99.90
19878;DHT22;10101;52.204;9.910;2022-11-20T09:22:12;-1.40;99.90
19878;DHT22;10101;52.204;9.910;2022-11-20T09:24:39;-1.40;99.90
19878;DHT22;10101;52.204;9.910;2022-11-20T09:27:05;-1.40;99.90
19878;DHT22;10101;52.204;9.910;2022-11-20T09:29:32;-1.30;99.90
19878;DHT22;10101;52.204;9.910;2022-11-20T09:32:00;-1.10;99.90
19878;DHT22;10101;52.204;9.910;2022-11-20T09:34:27;-1.10;99.90
19878;DHT22;10101;52.204;9.910;2022-11-20T09:36:54;-1.10;99.90
19878;DHT22;10101;52.204;9.910;2022-11-20T09:39:20;-1.10;99.90
19878;DHT22;10101;52.204;9.910;2022-11-20T09:41:57;-1.10;99.90
19878;DHT22;10101;52.204;9.910;2022-11-20T09:44:38;-0.90;99.90
19878;DHT22;10101;52.204;9.910;2022-11-20T09:47:12;-0.90;99.90
19878;DHT22;10101;52.204;9.910;2022-11-20T09:49:53;-0.80;99.90
19878;DHT22;10101;52.204;9.910;2022-11-20T09:52:31;-0.70;99.90
19878;DHT22;10101;52.204;9.910;2022-11-20T09:55:02;-0.90;99.90
19878;DHT22;10101;52.204;9.910;2022-11-20T09:57:34;-0.90;99.90
19878;DHT22;10101;52.204;9.910;2022-11-20T10:00:05;-1.10;99.90
19878;DHT22;10101;52.204;9.910;2022-11-20T10:02:39;-1.10;99.90
19878;DHT22;10101;52.204;9.910;2022-11-20T10:05:11;-1.10;99.90
19878;DHT22;10101;52.204;9.910;2022-11-20T10:07:42;-1.00;99.90
19878;DHT22;10101;52.204;9.910;2022-11-20T10:10:15;-1.00;99.90
19878;DHT22;10101;52.204;9.910;2022-11-20T10:12:53;-1.00;99.90
19878;DHT22;10101;52.204;9.910;2022-11-20T10:15:32;-0.90;99.90
19878;DHT22;10101;52.204;9.910;2022-11-20T10:18:19;-0.80;99.90
19878;DHT22;10101;52.204;9.910;2022-11-20T10:20:53;-0.70;99.90
19878;DHT22;10101;52.204;9.910;2022-11-20T10:23:42;-0.60;99.90
19878;DHT22;10101;52.204;9.910;2022-11-20T10:26:17;-0.50;99.90
19878;DHT22;10101;52.204;9.910;2022-11-20T10:28:58;-0.40;99.90
19878;DHT22;10101;52.204;9.910;2022-11-20T10:31:32;-0.40;99.90
19878;DHT22;10101;52.204;9.910;2022-11-20T10:34:05;-0.50;99.90
19878;DHT22;10101;52.204;9.910;2022-11-20T10:36:36;-0.50;99.90
19878;DHT22;10101;52.204;9.910;2022-11-20T10:39:07;-0.60;99.90
19878;DHT22;10101;52.204;9.910;2022-11-20T10:41:40;-0.60;99.90
19878;DHT22;10101;52.204;9.910;2022-11-20T10:44:12;-0.60;99.90
19878;DHT22;10101;52.204;9.910;2022-11-20T10:46:43;-0.60;99.90
19878;DHT22;10101;52.204;9.910;2022-11-20T10:49:17;-0.70;99.90
19878;DHT22;10101;52.204;9.910;2022-11-20T10:51:56;-0.70;99.90
19878;DHT22;10101;52.204;9.910;2022-11-20T10:54:32;-0.70;99.90
19878;DHT22;10101;52.204;9.910;2022-11-20T10:57:07;-0.60;99.90
19878;DHT22;10101;52.204;9.910;2022-11-20T10:59:46;-0.60;99.90
19878;DHT22;10101;52.204;9.910;2022-11-20T11:02:18;-0.50;99.90
19878;DHT22;10101;52.204;9.910;2022-11-20T11:04:49;-0.40;99.90
19878;DHT22;10101;52.204;9.910;2022-11-20T11:07:19;-0.40;99.90
19878;DHT22;10101;52.204;9.910;2022-11-20T11:09:49;-0.40;99.90
19878;DHT22;10101;52.204;9.910;2022-11-20T11:12:16;-0.30;99.90
19878;DHT22;10101;52.204;9.910;2022-11-20T11:14:45;-0.10;99.90
19878;DHT22;10101;52.204;9.910;2022-11-20T11:17:21;-0.10;99.90
19878;DHT22;10101;52.204;9.910;2022-11-20T11:20:02;-0.10;99.90
19878;DHT22;10101;52.204;9.910;2022-11-20T11:22:31;0.00;99.90
19878;DHT22;10101;52.204;9.910;2022-11-20T11:24:58;0.00;99.90
19878;DHT22;10101;52.204;9.910;2022-11-20T11:27:25;0.00;99.90
19878;DHT22;10101;52.204;9.910;2022-11-20T11:30:03;0.10;99.90
19878;DHT22;10101;52.204;9.910;2022-11-20T11:32:30;0.20;99.90
19878;DHT22;10101;52.204;9.910;2022-11-20T11:35:04;0.30;99.90
19878;DHT22;10101;52.204;9.910;2022-11-20T11:37:33;0.20;99.90
19878;DHT22;10101;52.204;9.910;2022-11-20T11:40:01;0.20;99.90
19878;DHT22;10101;52.204;9.910;2022-11-20T11:42:28;0.30;99.90
19878;DHT22;10101;52.204;9.910;2022-11-20T11:44:57;0.20;99.90
19878;DHT22;10101;52.204;9.910;2022-11-20T11:47:36;0.40;99.90
19878;DHT22;10101;52.204;9.910;2022-11-20T11:50:17;0.40;99.90
19878;DHT22;10101;52.204;9.910;2022-11-20T11:52:48;0.30;99.90
19878;DHT22;10101;52.204;9.910;2022-11-20T11:55:28;0.40;99.90
19878;DHT22;10101;52.204;9.910;2022-11-20T11:58:02;0.40;99.90
19878;DHT22;10101;52.204;9.910;2022-11-20T12:00:33;0.50;99.90
19878;DHT22;10101;52.204;9.910;2022-11-20T12:03:06;0.40;99.90
19878;DHT22;10101;52.204;9.910;2022-11-20T12:05:40;0.40;99.90
19878;DHT22;10101;52.204;9.910;2022-11-20T12:08:15;0.50;99.90
19878;DHT22;10101;52.204;9.910;2022-11-20T12:10:45;0.70;99.90
19878;DHT22;10101;52.204;9.910;2022-11-20T12:13:24;0.90;99.90
19878;DHT22;10101;52.204;9.910;2022-11-20T12:15:53;0.80;99.90
19878;DHT22;10101;52.204;9.910;2022-11-20T12:18:21;0.70;99.90
19878;DHT22;10101;52.204;9.910;2022-11-20T12:20:59;0.70;99.90
19878;DHT22;10101;52.204;9.910;2022-11-20T12:23:35;0.60;99.90
19878;DHT22;10101;52.204;9.910;2022-11-20T12:26:13;0.60;99.90
19878;DHT22;10101;52.204;9.910;2022-11-20T12:28:52;0.70;99.90
19878;DHT22;10101;52.204;9.910;2022-11-20T12:31:42;0.60;99.90
19878;DHT22;10101;52.204;9.910;2022-11-20T12:34:28;0.60;99.90
19878;DHT22;10101;52.204;9.910;2022-11-20T12:37:05;0.70;99.90
19878;DHT22;10101;52.204;9.910;2022-11-20T12:39:39;0.90;99.90
19878;DHT22;10101;52.204;9.910;2022-11-20T12:45:31;1.20;99.90
19878;DHT22;10101;52.204;9.910;2022-11-20T12:48:25;1.20;99.90
19878;DHT22;10101;52.204;9.910;2022-11-20T12:51:14;1.10;99.90
19878;DHT22;10101;52.204;9.910;2022-11-20T12:53:54;1.10;99.90
19878;DHT22;10101;52.204;9.910;2022-11-20T12:56:33;1.20;99.90
19878;DHT22;10101;52.204;9.910;2022-11-20T12:59:16;1.10;99.90
19878;DHT22;10101;52.204;9.910;2022-11-20T13:01:51;1.10;99.90
19878;DHT22;10101;52.204;9.910;2022-11-20T13:04:29;1.20;99.90
19878;DHT22;10101;52.204;9.910;2022-11-20T13:07:01;1.40;99.90
19878;DHT22;10101;52.204;9.910;2022-11-20T13:09:30;1.30;99.90
19878;DHT22;10101;52.204;9.910;2022-11-20T13:12:03;1.30;99.90
19878;DHT22;10101;52.204;9.910;2022-11-20T13:14:35;1.20;99.90
19878;DHT22;10101;52.204;9.910;2022-11-20T13:17:07;1.10;99.90
19878;DHT22;10101;52.204;9.910;2022-11-20T13:19:36;1.10;99.90
19878;DHT22;10101;52.204;9.910;2022-11-20T13:22:04;1.10;99.90
19878;DHT22;10101;52.204;9.910;2022-11-20T13:24:32;1.00;99.90
19878;DHT22;10101;52.204;9.910;2022-11-20T13:27:00;1.10;99.90
19878;DHT22;10101;52.204;9.910;2022-11-20T13:29:28;1.00;99.90
19878;DHT22;10101;52.204;9.910;2022-11-20T13:32:03;1.00;99.90
19878;DHT22;10101;52.204;9.910;2022-11-20T13:34:31;1.10;99.90
19878;DHT22;10101;52.204;9.910;2022-11-20T13:36:59;1.30;99.90
19878;DHT22;10101;52.204;9.910;2022-11-20T13:39:31;1.50;99.90
19878;DHT22;10101;52.204;9.910;2022-11-20T13:42:00;1.70;99.90
19878;DHT22;10101;52.204;9.910;2022-11-20T13:44:33;1.70;99.90
19878;DHT22;10101;52.204;9.910;2022-11-20T13:47:01;1.70;99.90
19878;DHT22;10101;52.204;9.910;2022-11-20T13:49:32;1.70;99.90
19878;DHT22;10101;52.204;9.910;2022-11-20T13:52:15;1.60;99.90
19878;DHT22;10101;52.204;9.910;2022-11-20T13:55:01;1.60;99.90
19878;DHT22;10101;52.204;9.910;2022-11-20T14:00:43;1.50;49.20
19878;DHT22;10101;52.204;9.910;2022-11-20T14:03:17;1.60;1.00
19878;DHT22;10101;52.204;9.910;2022-11-20T14:05:50;1.60;1.00
19878;DHT22;10101;52.204;9.910;2022-11-20T14:08:24;1.50;1.00
19878;DHT22;10101;52.204;9.910;2022-11-20T14:11:04;1.60;1.00
19878;DHT22;10101;52.204;9.910;2022-11-20T14:13:31;1.50;99.90
19878;DHT22;10101;52.204;9.910;2022-11-20T14:15:58;1.50;99.90
19878;DHT22;10101;52.204;9.910;2022-11-20T14:18:26;1.40;99.90
19878;DHT22;10101;52.204;9.910;2022-11-20T14:20:54;1.30;99.90
19878;DHT22;10101;52.204;9.910;2022-11-20T14:23:26;1.30;99.90
19878;DHT22;10101;52.204;9.910;2022-11-20T14:25:53;1.30;99.90
19878;DHT22;10101;52.204;9.910;2022-11-20T14:28:25;1.30;99.90
19878;DHT22;10101;52.204;9.910;2022-11-20T14:30:54;1.30;99.90
19878;DHT22;10101;52.204;9.910;2022-11-20T14:33:21;1.30;99.90
19878;DHT22;10101;52.204;9.910;2022-11-20T14:35:52;1.30;99.90
19878;DHT22;10101;52.204;9.910;2022-11-20T14:38:22;1.30;1.00
19878;DHT22;10101;52.204;9.910;2022-11-20T14:40:50;1.20;1.00
19878;DHT22;10101;52.204;9.910;2022-11-20T14:43:20;1.10;1.00
19878;DHT22;10101;52.204;9.910;2022-11-20T14:45:55;1.10;1.00
19878;DHT22;10101;52.204;9.910;2022-11-20T14:48:26;1.00;1.00
19878;DHT22;10101;52.204;9.910;2022-11-20T14:50:54;0.90;1.00
19878;DHT22;10101;52.204;9.910;2022-11-20T14:53:22;0.80;1.00
19878;DHT22;10101;52.204;9.910;2022-11-20T14:55:55;0.70;18.40
19878;DHT22;10101;52.204;9.910;2022-11-20T14:58:24;0.60;99.90
19878;DHT22;10101;52.204;9.910;2022-11-20T15:00:58;0.60;99.90
19878;DHT22;10101;52.204;9.910;2022-11-20T15:03:31;0.50;99.90
19878;DHT22;10101;52.204;9.910;2022-11-20T15:05:58;0.40;99.90
19878;DHT22;10101;52.204;9.910;2022-11-20T15:08:25;0.40;99.90
19878;DHT22;10101;52.204;9.910;2022-11-20T15:10:51;0.40;99.90
19878;DHT22;10101;52.204;9.910;2022-11-20T15:13:26;0.30;99.90
19878;DHT22;10101;52.204;9.910;2022-11-20T15:15:56;0.20;99.90
19878;DHT22;10101;52.204;9.910;2022-11-20T15:18:25;0.20;99.90
19878;DHT22;10101;52.204;9.910;2022-11-20T15:20:55;0.20;99.90
19878;DHT22;10101;52.204;9.910;2022-11-20T15:23:22;0.20;99.90
19878;DHT22;10101;52.204;9.910;2022-11-20T15:25:49;0.10;99.90
19878;DHT22;10101;52.204;9.910;2022-11-20T15:28:19;0.10;99.90
19878;DHT22;10101;52.204;9.910;2022-11-20T15:30:47;0.10;99.90
19878;DHT22;10101;52.204;9.910;2022-11-20T15:33:16;0.10;99.90
19878;DHT22;10101;52.204;9.910;2022-11-20T15:35:43;0.00;99.90
19878;DHT22;10101;52.204;9.910;2022-11-20T15:38:10;0.00;99.90
19878;DHT22;10101;52.204;9.910;2022-11-20T15:40:36;-0.10;99.90
19878;DHT22;10101;52.204;9.910;2022-11-20T15:43:03;-0.20;99.90
19878;DHT22;10101;52.204;9.910;2022-11-20T15:45:36;-0.20;99.90
19878;DHT22;10101;52.204;9.910;2022-11-20T15:48:04;-0.40;99.90
19878;DHT22;10101;52.204;9.910;2022-11-20T15:50:37;-0.40;99.90
19878;DHT22;10101;52.204;9.910;2022-11-20T15:53:04;-0.50;99.90
19878;DHT22;10101;52.204;9.910;2022-11-20T15:55:32;-0.50;99.90